Time;durP1;ratioP1;P1;durP2;ratioP2;P2;SDS_P1;SDS_P2;PMS_P1;PMS_P2;Temp;Humidity;BMP_temperature;BMP_pressure;BME280_temperature;BME280_humidity;BME280_pressure;Samples;Min_cycle;Max_cycle;Signal;HPM_P1;HPM_P2
2021/01/17 00:01:25;;;;;;;18.33;8.57;;;;;;;-4.03;83.70;100070.91;2153068;80;21198;-67
2021/01/17 00:04:27;;;;;;;17.93;8.67;;;;;;;-4.01;83.74;100076.88;2150003;80;21158;-67
2021/01/17 00:07:30;;;;;;;12.77;6.57;;;;;;;-4.02;83.67;100076.50;2148765;80;21173;-67
2021/01/17 00:10:33;;;;;;;14.17;7.20;;;;;;;-4.03;83.63;100080.82;2144938;80;21532;-67
2021/01/17 00:13:35;;;;;;;11.03;6.60;;;;;;;-4.03;83.54;100070.45;2145883;80;21491;-66
2021/01/17 00:16:39;;;;;;;15.87;6.73;;;;;;;-4.04;83.57;100069.25;2152470;80;21183;-67
2021/01/17 00:19:40;;;;;;;12.17;6.73;;;;;;;-4.02;83.59;100084.28;2156069;80;21114;-67
2021/01/17 00:22:44;;;;;;;11.73;6.47;;;;;;;-4.02;83.49;100075.20;2150110;80;21161;-66
2021/01/17 00:25:45;;;;;;;12.17;6.70;;;;;;;-4.06;83.46;100074.03;2148228;80;21075;-67
2021/01/17 00:28:46;;;;;;;10.63;6.63;;;;;;;-4.04;83.35;100075.27;2120697;80;21480;-66
2021/01/17 00:31:50;;;;;;;10.80;6.97;;;;;;;-4.02;83.32;100081.69;2148366;80;21151;-67
2021/01/17 00:34:51;;;;;;;10.87;6.67;;;;;;;-4.04;83.32;100082.21;2155036;80;21102;-66
2021/01/17 00:37:57;;;;;;;9.37;5.83;;;;;;;-4.04;83.35;100065.36;2157347;80;21156;-67
2021/01/17 00:40:59;;;;;;;13.53;6.90;;;;;;;-4.03;83.40;100087.77;2155098;80;21109;-72
2021/01/17 00:44:01;;;;;;;14.57;7.17;;;;;;;-4.03;83.38;100079.98;2159282;80;21148;-70
2021/01/17 00:47:03;;;;;;;17.62;8.33;;;;;;;-4.04;83.38;100088.69;2157388;80;21126;-67
2021/01/17 00:50:07;;;;;;;28.50;12.53;;;;;;;-4.07;83.48;100093.56;2160361;80;21163;-71
2021/01/17 00:53:08;;;;;;;39.97;14.47;;;;;;;-4.14;82.53;100109.02;2160219;80;21160;-66
2021/01/17 00:56:12;;;;;;;43.60;16.87;;;;;;;-4.30;81.88;100112.81;2156781;80;21540;-69
2021/01/17 00:59:13;;;;;;;48.03;16.43;;;;;;;-4.44;81.56;100114.75;2160154;80;21127;-66
2021/01/17 01:02:17;;;;;;;23.97;10.90;;;;;;;-4.54;81.66;100119.96;2156936;80;21156;-70
2021/01/17 01:05:18;;;;;;;26.20;10.80;;;;;;;-4.68;81.25;100128.36;2159067;80;21153;-68
2021/01/17 01:08:20;;;;;;;32.43;12.43;;;;;;;-4.87;81.41;100138.73;2155404;80;21212;-72
2021/01/17 01:11:22;;;;;;;30.83;12.90;;;;;;;-4.99;81.47;100131.03;2161851;80;21168;-72
2021/01/17 01:14:24;;;;;;;28.60;12.87;;;;;;;-5.18;80.52;100135.33;2163354;80;21180;-68
2021/01/17 01:17:26;;;;;;;27.10;12.60;;;;;;;-5.32;80.71;100140.25;2160633;80;21136;-68
2021/01/17 01:20:27;;;;;;;22.53;11.17;;;;;;;-5.49;80.13;100133.22;2165248;80;22025;-67
2021/01/17 01:23:29;;;;;;;26.40;11.43;;;;;;;-5.61;79.93;100137.62;2118194;82;21190;-69
2021/01/17 01:26:37;;;;;;;25.70;11.03;;;;;;;-5.77;79.60;100141.27;2158552;80;21170;-72
2021/01/17 01:29:39;;;;;;;28.90;12.67;;;;;;;-5.91;79.80;100145.28;2164321;80;21180;-67
2021/01/17 01:32:42;;;;;;;27.60;12.27;;;;;;;-6.01;80.14;100139.28;2156363;80;21092;-67
2021/01/17 01:35:44;;;;;;;19.23;10.13;;;;;;;-6.07;80.49;100153.28;2161542;80;21196;-68
2021/01/17 01:38:47;;;;;;;21.83;10.27;;;;;;;-6.11;80.06;100147.83;2147594;80;21102;-68
2021/01/17 01:41:48;;;;;;;19.10;9.27;;;;;;;-6.19;79.66;100152.03;2140851;81;21594;-69
2021/01/17 01:44:50;;;;;;;21.07;10.47;;;;;;;-6.27;79.64;100150.19;2149369;81;21087;-69
2021/01/17 01:47:51;;;;;;;19.97;9.43;;;;;;;-6.33;79.53;100147.40;2141038;81;21191;-68
2021/01/17 01:50:53;;;;;;;16.23;8.20;;;;;;;-6.33;79.81;100144.81;2139965;81;21602;-67
2021/01/17 01:53:57;;;;;;;18.53;8.10;;;;;;;-6.37;79.25;100152.27;2147271;81;21195;-67
2021/01/17 01:56:58;;;;;;;20.67;8.97;;;;;;;-6.41;78.86;100158.92;2142051;81;21151;-68
2021/01/17 02:00:03;;;;;;;17.53;8.77;;;;;;;-6.51;78.49;100160.99;2145826;81;21098;-68
2021/01/17 02:03:06;;;;;;;19.53;8.93;;;;;;;-6.62;78.44;100157.97;2141758;81;21561;-67
2021/01/17 02:06:16;;;;;;;18.77;8.97;;;;;;;-6.79;78.23;100167.17;2143299;81;21160;-70
2021/01/17 02:09:26;;;;;;;15.70;8.67;;;;;;;-6.94;77.11;100194.83;2125130;82;21142;-71
2021/01/17 02:12:36;;;;;;;18.17;8.17;;;;;;;-7.19;77.40;100152.74;2138288;81;21781;-71
2021/01/17 02:15:40;;;;;;;17.90;8.57;;;;;;;-7.22;77.49;100175.16;2144553;81;21100;-67
2021/01/17 02:18:44;;;;;;;17.70;7.93;;;;;;;-7.28;77.69;100179.69;2125139;81;21076;-67
2021/01/17 02:21:56;;;;;;;20.93;8.80;;;;;;;-7.45;78.01;100148.87;2139434;81;21165;-67
2021/01/17 02:25:05;;;;;;;16.87;7.50;;;;;;;-7.35;78.42;100173.88;2143947;81;21198;-67
2021/01/17 02:28:11;;;;;;;14.43;7.17;;;;;;;-7.37;77.39;100176.98;2143156;81;21139;-67
2021/01/17 02:31:14;;;;;;;18.20;8.20;;;;;;;-7.43;77.06;100165.59;2126315;81;21130;-67
2021/01/17 02:34:16;;;;;;;18.20;8.03;;;;;;;-7.48;77.41;100168.77;2146645;81;21110;-67
2021/01/17 02:37:38;;;;;;;16.47;8.37;;;;;;;-7.55;77.01;100165.53;2144779;81;21175;-67
2021/01/17 02:40:45;;;;;;;18.53;8.63;;;;;;;-7.64;76.94;100176.61;2135475;81;21161;-67
2021/01/17 02:43:47;;;;;;;17.37;8.13;;;;;;;-7.73;77.15;100173.89;2101446;81;21629;-67
2021/01/17 02:46:49;;;;;;;16.33;8.20;;;;;;;-7.79;77.30;100179.25;2137554;81;21184;-67
2021/01/17 02:49:52;;;;;;;16.47;8.40;;;;;;;-7.81;77.30;100186.17;2139702;81;21157;-67
2021/01/17 02:53:27;;;;;;;20.73;9.00;;;;;;;-7.82;77.61;100190.94;2143646;81;21186;-67
2021/01/17 02:56:32;;;;;;;18.43;8.17;;;;;;;-7.83;77.20;100186.66;2138180;81;21165;-69
2021/01/17 02:59:51;;;;;;;17.23;8.00;;;;;;;-7.91;77.08;100196.78;2126576;81;21089;-67
2021/01/17 03:02:57;;;;;;;20.97;8.67;;;;;;;-7.96;77.10;100197.81;2142163;81;21512;-67
2021/01/17 03:06:00;;;;;;;17.37;8.23;;;;;;;-8.00;77.34;100202.64;2140273;81;21526;-67
2021/01/17 03:09:04;;;;;;;20.07;7.87;;;;;;;-8.07;77.28;100195.56;2145338;81;21598;-72
2021/01/17 03:12:06;;;;;;;18.90;7.83;;;;;;;-8.13;77.01;100204.32;2123141;81;21225;-67
2021/01/17 03:15:09;;;;;;;15.53;7.70;;;;;;;-8.24;76.95;100199.11;2140091;81;22244;-67
2021/01/17 03:18:12;;;;;;;18.80;8.33;;;;;;;-8.37;77.07;100201.19;2147230;81;21582;-67
2021/01/17 03:21:13;;;;;;;17.33;8.77;;;;;;;-8.47;76.86;100204.97;2140454;81;21210;-67
2021/01/17 03:24:15;;;;;;;18.20;8.57;;;;;;;-8.58;76.99;100203.98;2145158;81;22261;-67
2021/01/17 03:27:18;;;;;;;16.63;7.60;;;;;;;-8.72;77.10;100211.26;2138541;81;21147;-71
2021/01/17 03:30:21;;;;;;;20.43;9.40;;;;;;;-8.81;77.31;100217.50;2102232;83;21112;-72
2021/01/17 03:33:22;;;;;;;21.33;8.87;;;;;;;-8.92;77.25;100214.38;2147926;81;21597;-67
2021/01/17 03:36:23;;;;;;;23.10;9.00;;;;;;;-8.99;77.16;100216.25;2073659;84;21230;-69
2021/01/17 03:39:25;;;;;;;15.47;7.50;;;;;;;-9.10;76.91;100218.27;2095024;83;21147;-67
2021/01/17 03:42:26;;;;;;;18.60;7.70;;;;;;;-9.28;77.14;100224.74;2097145;83;21448;-69
2021/01/17 03:45:28;;;;;;;25.00;10.07;;;;;;;-9.45;77.28;100224.33;2092350;83;21143;-71
2021/01/17 03:48:29;;;;;;;23.00;7.87;;;;;;;-9.59;77.24;100245.22;2097507;83;21216;-67
2021/01/17 03:51:31;;;;;;;17.90;9.67;;;;;;;-9.73;77.15;100241.23;2093136;83;21263;-67
2021/01/17 03:54:33;;;;;;;22.27;9.27;;;;;;;-9.84;77.03;100248.80;2093592;83;21157;-67
2021/01/17 03:57:34;;;;;;;21.63;9.37;;;;;;;-10.04;76.53;100246.68;2091456;83;21119;-67
2021/01/17 04:00:36;;;;;;;16.10;7.90;;;;;;;-10.20;76.58;100250.01;2093953;83;21552;-71
2021/01/17 04:03:38;;;;;;;19.60;9.43;;;;;;;-10.34;76.22;100255.91;2096813;83;21155;-68
2021/01/17 04:06:39;;;;;;;20.30;10.73;;;;;;;-10.57;76.33;100252.53;2087852;83;21503;-71
2021/01/17 04:09:41;;;;;;;21.17;10.73;;;;;;;-10.64;77.21;100255.22;2092258;83;21129;-66
2021/01/17 04:12:42;;;;;;;20.60;10.57;;;;;;;-10.65;77.41;100258.64;2093007;83;21215;-66
2021/01/17 04:15:44;;;;;;;21.87;9.23;;;;;;;-10.61;77.51;100267.14;2088734;83;21099;-68
2021/01/17 04:18:45;;;;;;;26.77;9.67;;;;;;;-10.61;77.40;100263.30;2096252;83;21593;-67
2021/01/17 04:21:47;;;;;;;45.00;16.77;;;;;;;-10.67;77.33;100262.11;2092741;83;21505;-67
2021/01/17 04:24:49;;;;;;;36.43;12.80;;;;;;;-10.69;77.20;100272.86;2087273;83;21177;-69
2021/01/17 04:27:50;;;;;;;19.90;8.77;;;;;;;-10.84;76.75;100276.12;2097466;83;21145;-68
2021/01/17 04:30:52;;;;;;;22.77;9.20;;;;;;;-11.02;76.35;100275.61;2098179;83;21220;-66
2021/01/17 04:33:53;;;;;;;24.07;9.40;;;;;;;-11.24;76.33;100278.53;2095322;83;21185;-71
2021/01/17 04:36:55;;;;;;;25.97;10.33;;;;;;;-11.30;76.80;100281.20;2095774;83;21206;-66
2021/01/17 04:39:56;;;;;;;25.07;11.17;;;;;;;-11.36;76.79;100282.14;2093774;83;21224;-67
2021/01/17 04:43:09;;;;;;;28.60;12.30;;;;;;;-11.34;77.00;100282.13;2093484;83;21840;-67
2021/01/17 04:46:13;;;;;;;32.43;13.13;;;;;;;-11.41;76.71;100281.37;2094786;83;21205;-67
2021/01/17 04:49:17;;;;;;;29.07;12.80;;;;;;;-11.47;76.79;100272.51;2097116;83;21121;-68
2021/01/17 04:52:22;;;;;;;29.57;9.70;;;;;;;-11.58;76.67;100285.92;2096973;83;21123;-72
2021/01/17 04:55:24;;;;;;;25.23;10.43;;;;;;;-11.66;76.84;100286.47;2086746;83;21180;-67
2021/01/17 04:58:30;;;;;;;20.93;9.83;;;;;;;-11.67;76.94;100289.47;2098037;83;21565;-67
2021/01/17 05:01:52;;;;;;;23.53;10.87;;;;;;;-11.64;76.85;100300.94;2089304;83;21193;-68
2021/01/17 05:05:17;;;;;;;26.70;11.30;;;;;;;-11.65;76.74;100297.14;2093795;83;21608;-68
2021/01/17 05:08:32;;;;;;;33.23;13.77;;;;;;;-11.70;76.57;100306.59;2099688;83;21504;-72
2021/01/17 05:11:39;;;;;;;59.40;18.57;;;;;;;-11.82;76.60;100305.91;2090233;83;21165;-69
2021/01/17 05:14:55;;;;;;;51.20;17.57;;;;;;;-11.88;76.61;100312.84;2094422;83;21656;-67
2021/01/17 05:17:58;;;;;;;31.40;13.40;;;;;;;-11.82;76.87;100315.30;2096950;83;21170;-71
2021/01/17 05:21:03;;;;;;;34.17;13.40;;;;;;;-11.68;76.89;100307.39;2099330;83;21993;-67
2021/01/17 05:24:11;;;;;;;27.13;12.17;;;;;;;-11.62;76.62;100306.89;2099855;83;21212;-68
2021/01/17 05:27:13;;;;;;;27.40;11.00;;;;;;;-11.64;76.21;100312.46;2095445;83;21073;-67
2021/01/17 05:30:15;;;;;;;22.77;11.40;;;;;;;-11.65;76.29;100318.90;2088945;83;21639;-67
2021/01/17 05:33:20;;;;;;;24.33;11.80;;;;;;;-11.67;76.45;100326.59;2094145;83;21135;-70
2021/01/17 05:36:23;;;;;;;22.93;11.63;;;;;;;-11.67;76.45;100326.59;2091923;83;21092;-67
2021/01/17 05:39:24;;;;;;;25.77;11.27;;;;;;;-11.65;76.54;100322.74;2094879;83;21159;-69
2021/01/17 05:42:36;;;;;;;28.60;12.63;;;;;;;-11.67;76.46;100320.62;2096701;83;21558;-67
2021/01/17 05:45:38;;;;;;;30.03;12.90;;;;;;;-11.74;76.37;100323.28;2091790;83;21325;-71
2021/01/17 05:48:39;;;;;;;29.87;12.27;;;;;;;-11.77;76.34;100316.93;2096700;83;21715;-67
2021/01/17 05:51:40;;;;;;;33.13;13.83;;;;;;;-11.82;75.92;100324.27;2091325;83;21147;-73
2021/01/17 05:54:48;;;;;;;75.63;24.93;;;;;;;-12.04;75.91;100326.29;2094973;83;21105;-67
2021/01/17 05:57:49;;;;;;;30.30;11.17;;;;;;;-12.23;75.58;100328.22;2093178;83;21669;-67
2021/01/17 06:01:04;;;;;;;73.43;21.33;;;;;;;-12.47;75.61;100328.94;2090892;83;21209;-68
2021/01/17 06:04:12;;;;;;;30.07;11.60;;;;;;;-12.76;75.72;100329.66;2088685;83;21169;-67
2021/01/17 06:07:15;;;;;;;31.43;11.53;;;;;;;-13.01;75.56;100339.27;2092295;83;21608;-67
2021/01/17 06:10:24;;;;;;;34.63;13.67;;;;;;;-13.26;76.12;100333.15;2088420;83;21163;-69
2021/01/17 06:13:26;;;;;;;47.90;16.60;;;;;;;-13.30;76.42;100344.66;2095720;83;21193;-70
2021/01/17 06:16:38;;;;;;;34.90;13.13;;;;;;;-13.33;76.47;100355.75;2093093;83;21157;-68
2021/01/17 06:19:39;;;;;;;24.23;11.23;;;;;;;-13.35;76.42;100353.19;2093372;83;21212;-67
2021/01/17 06:22:41;;;;;;;30.53;12.13;;;;;;;-13.40;75.96;100366.84;2097037;83;22442;-67
2021/01/17 06:25:43;;;;;;;25.47;10.90;;;;;;;-13.46;76.01;100364.34;2090779;83;21155;-67
2021/01/17 06:28:44;;;;;;;32.60;11.80;;;;;;;-13.42;76.33;100374.97;2092177;83;21668;-68
2021/01/17 06:31:46;;;;;;;27.33;12.00;;;;;;;-13.37;76.31;100393.66;2098268;83;21078;-68
2021/01/17 06:34:54;;;;;;;25.30;11.37;;;;;;;-13.40;75.83;100400.03;2092508;83;21129;-67
2021/01/17 06:37:55;;;;;;;26.37;11.03;;;;;;;-13.40;76.07;100407.30;2091518;83;21782;-68
2021/01/17 06:40:59;;;;;;;26.20;11.23;;;;;;;-13.34;76.34;100400.86;2092225;83;21147;-67
2021/01/17 06:44:11;;;;;;;23.40;10.07;;;;;;;-13.36;76.40;100412.78;2094045;83;21096;-68
2021/01/17 06:47:27;;;;;;;30.47;11.53;;;;;;;-13.29;76.55;100420.40;2094144;83;21224;-67
2021/01/17 06:50:28;;;;;;;25.60;10.40;;;;;;;-13.16;76.46;100425.38;2091150;83;21174;-69
2021/01/17 06:53:30;;;;;;;26.63;10.70;;;;;;;-13.05;76.32;100434.69;2094522;83;21152;-68
2021/01/17 06:56:33;;;;;;;30.43;12.50;;;;;;;-13.02;76.26;100429.55;2067048;84;21161;-67
2021/01/17 06:59:43;;;;;;;32.57;12.20;;;;;;;-13.03;75.94;100430.39;2090416;83;21171;-68
2021/01/17 07:02:56;;;;;;;27.32;11.28;;;;;;;-13.00;75.95;100434.23;2093473;83;21725;-68
2021/01/17 07:06:12;;;;;;;25.12;11.30;;;;;;;-12.99;76.23;100434.64;2092844;83;21611;-67
2021/01/17 07:09:22;;;;;;;26.70;11.53;;;;;;;-12.89;76.15;100440.95;2084616;83;21201;-68
2021/01/17 07:12:57;;;;;;;38.13;15.03;;;;;;;-12.81;76.00;100443.42;2100477;83;21189;-74
2021/01/17 07:16:01;;;;;;;33.67;15.23;;;;;;;-12.68;76.22;100446.30;2093416;83;21096;-77
2021/01/17 07:19:06;;;;;;;31.77;14.07;;;;;;;-12.56;76.12;100459.84;2098537;83;22283;-67
2021/01/17 07:22:08;;;;;;;29.27;12.37;;;;;;;-12.52;75.69;100460.25;2090074;83;21149;-68
2021/01/17 07:25:12;;;;;;;47.87;18.43;;;;;;;-12.50;75.53;100458.50;2093908;83;21182;-68
2021/01/17 07:28:19;;;;;;;44.20;17.80;;;;;;;-12.40;75.88;100466.95;2048037;83;21164;-70
2021/01/17 07:31:26;;;;;;;55.90;20.27;;;;;;;-12.17;75.99;100466.28;2091596;83;21217;-68
2021/01/17 07:34:35;;;;;;;52.47;17.63;;;;;;;-12.12;75.62;100465.81;2091032;83;21133;-72
2021/01/17 07:37:42;;;;;;;33.77;15.37;;;;;;;-12.12;75.50;100476.48;2093472;83;21174;-72
2021/01/17 07:40:59;;;;;;;36.57;14.87;;;;;;;-12.03;75.55;100472.10;2067583;83;21611;-70
2021/01/17 07:44:01;;;;;;;46.77;17.73;;;;;;;-11.94;75.16;100477.55;2118152;82;21553;-70
2021/01/17 07:47:05;;;;;;;35.30;15.30;;;;;;;-12.03;74.61;100471.26;2131875;81;21096;-70
2021/01/17 07:50:09;;;;;;;41.43;18.67;;;;;;;-11.93;74.94;100473.30;2137679;81;21190;-72
2021/01/17 07:53:38;;;;;;;49.03;22.10;;;;;;;-11.83;74.87;100465.45;2106203;81;21175;-71
2021/01/17 07:56:42;;;;;;;56.33;25.00;;;;;;;-11.69;74.93;100467.00;2139983;81;21116;-70
2021/01/17 07:59:43;;;;;;;47.47;21.60;;;;;;;-11.43;75.40;100468.83;2138974;81;21143;-73
2021/01/17 08:02:52;;;;;;;42.73;22.07;;;;;;;-11.23;75.13;100476.64;2137679;81;21102;-70
2021/01/17 08:05:57;;;;;;;41.83;18.50;;;;;;;-11.15;74.89;100473.14;2135019;81;21108;-71
2021/01/17 08:08:58;;;;;;;54.00;23.07;;;;;;;-11.09;74.66;100465.80;2130231;81;21112;-70
2021/01/17 08:12:00;;;;;;;55.40;23.97;;;;;;;-10.92;74.70;100484.77;2131505;81;21131;-71
2021/01/17 08:15:23;;;;;;;58.47;24.47;;;;;;;-10.63;74.69;100471.48;2133467;81;21225;-71
2021/01/17 08:18:35;;;;;;;107.43;35.87;;;;;;;-10.25;74.82;100475.08;2109800;81;21159;-71
2021/01/17 08:21:37;;;;;;;103.67;32.97;;;;;;;-10.07;74.13;100475.20;2130149;81;21140;-71
2021/01/17 08:24:39;;;;;;;90.03;29.00;;;;;;;-9.88;74.02;100476.55;2136507;81;21117;-72
2021/01/17 08:27:44;;;;;;;77.00;27.47;;;;;;;-9.63;73.93;100482.03;2128995;81;21171;-73
2021/01/17 08:30:47;;;;;;;59.57;23.43;;;;;;;-9.11;74.78;100488.66;2112988;81;21151;-72
2021/01/17 08:33:53;;;;;;;51.70;21.50;;;;;;;-8.36;74.81;100488.61;2133304;81;22325;-87
2021/01/17 08:36:56;;;;;;;60.40;22.40;;;;;;;-7.92;73.90;100490.45;2128570;81;21211;-71
2021/01/17 08:39:58;;;;;;;60.33;21.60;;;;;;;-7.41;73.83;100484.73;2110191;82;21167;-76
2021/01/17 08:43:03;;;;;;;70.07;27.50;;;;;;;-6.78;72.74;100488.03;2148304;81;21142;-73
2021/01/17 08:46:05;;;;;;;71.97;29.63;;;;;;;-6.46;72.53;100496.03;2147774;81;21155;-75
2021/01/17 08:49:07;;;;;;;98.73;45.00;;;;;;;-6.46;72.53;100496.03;2152210;81;21571;-72
2021/01/17 08:52:13;;;;;;;161.57;62.73;;;;;;;-6.19;72.46;100503.33;2148939;81;21199;-73
2021/01/17 08:55:24;;;;;;;60.10;24.73;;;;;;;-6.27;69.45;100508.35;2144315;81;21646;-72
2021/01/17 08:58:36;;;;;;;64.77;25.40;;;;;;;-6.81;68.27;100521.67;2141891;81;21173;-74
2021/01/17 09:01:43;;;;;;;76.90;28.77;;;;;;;-7.26;69.44;100529.89;2145453;81;21196;-72
2021/01/17 09:04:48;;;;;;;69.60;25.30;;;;;;;-7.18;69.07;100534.35;2115875;82;21689;-71
2021/01/17 09:07:51;;;;;;;61.93;24.00;;;;;;;-7.20;69.22;100539.19;2148963;81;21159;-75
2021/01/17 09:10:52;;;;;;;57.03;23.43;;;;;;;-7.39;68.62;100535.83;2149257;81;21167;-73
2021/01/17 09:14:23;;;;;;;51.07;22.20;;;;;;;-7.76;67.95;100535.55;2144899;81;21140;-72
2021/01/17 09:17:26;;;;;;;59.85;22.93;;;;;;;-8.10;67.31;100538.16;2136489;81;21176;-71
2021/01/17 09:20:28;;;;;;;46.87;18.73;;;;;;;-8.30;68.72;100556.67;2149824;81;21142;-72
2021/01/17 09:23:35;;;;;;;46.93;20.27;;;;;;;-7.88;69.58;100557.77;2147471;81;21187;-74
2021/01/17 09:26:40;;;;;;;51.57;21.73;;;;;;;-7.39;69.42;100543.56;2149797;81;21108;-72
2021/01/17 09:29:43;;;;;;;64.17;30.13;;;;;;;-6.83;70.13;100550.55;2148008;81;21211;-73
2021/01/17 09:32:46;;;;;;;60.13;29.17;;;;;;;-6.47;69.04;100545.99;2152653;81;21179;-72
2021/01/17 09:35:49;;;;;;;52.13;22.67;;;;;;;-6.24;68.49;100545.70;2148850;81;21521;-72
2021/01/17 09:38:51;;;;;;;53.17;25.27;;;;;;;-6.11;68.21;100549.13;2146952;81;21541;-71
2021/01/17 09:41:53;;;;;;;55.80;24.60;;;;;;;-6.00;67.94;100542.28;2138400;81;21158;-72
2021/01/17 09:45:01;;;;;;;59.07;24.60;;;;;;;-5.83;67.72;100553.77;2138023;81;21959;-72
2021/01/17 09:48:03;;;;;;;63.23;26.50;;;;;;;-5.72;66.23;100552.95;2134790;81;22412;-70
2021/01/17 09:51:07;;;;;;;58.73;25.90;;;;;;;-6.05;65.84;100559.70;2125098;81;21793;-69
2021/01/17 09:54:09;;;;;;;62.93;28.20;;;;;;;-6.34;65.49;100554.17;2125138;82;21179;-70
2021/01/17 09:57:18;;;;;;;72.57;32.80;;;;;;;-6.31;66.36;100561.83;2140361;81;21182;-69
2021/01/17 10:00:21;;;;;;;69.23;30.20;;;;;;;-6.13;67.33;100559.95;2142588;81;21162;-70
2021/01/17 10:03:27;;;;;;;69.53;28.57;;;;;;;-5.79;67.17;100561.83;2139388;81;21161;-69
2021/01/17 10:06:33;;;;;;;68.10;28.47;;;;;;;-5.57;66.96;100572.28;2140897;81;21491;-69
2021/01/17 10:09:34;;;;;;;62.70;28.10;;;;;;;-5.35;66.94;100571.05;2139158;81;22042;-69
2021/01/17 10:12:36;;;;;;;70.27;31.93;;;;;;;-5.19;66.55;100579.50;2138784;81;21149;-69
2021/01/17 10:15:40;;;;;;;82.50;33.67;;;;;;;-5.05;65.63;100578.16;2141201;81;22407;-68
2021/01/17 10:18:41;;;;;;;65.37;29.90;;;;;;;-5.73;63.35;100569.37;2139190;81;21134;-68
2021/01/17 10:21:44;;;;;;;67.63;30.77;;;;;;;-6.00;64.76;100577.62;2100523;83;21703;-69
2021/01/17 10:24:46;;;;;;;71.47;31.83;;;;;;;-6.52;62.62;100576.27;2135774;81;21190;-71
2021/01/17 10:27:48;;;;;;;76.63;31.77;;;;;;;-6.89;64.76;100589.44;2134838;81;21160;-72
2021/01/17 10:30:59;;;;;;;76.23;30.00;;;;;;;-6.75;65.67;100589.03;2140824;81;21122;-72
2021/01/17 10:34:00;;;;;;;72.43;31.03;;;;;;;-6.47;65.46;100592.92;2138091;81;21541;-71
2021/01/17 10:37:06;;;;;;;66.77;28.23;;;;;;;-6.32;65.17;100595.02;2138847;81;21153;-71
2021/01/17 10:40:08;;;;;;;100.43;39.60;;;;;;;-6.26;65.09;100599.98;2142590;80;21267;-71
2021/01/17 10:43:24;;;;;;;71.87;27.80;;;;;;;-6.29;64.67;100593.63;2148294;80;21134;-70
2021/01/17 10:46:27;;;;;;;60.53;26.93;;;;;;;-6.23;64.82;100590.00;2146352;80;21165;-71
2021/01/17 10:49:33;;;;;;;70.87;28.57;;;;;;;-6.05;65.25;100603.63;2150247;80;21277;-71
2021/01/17 10:52:40;;;;;;;65.57;27.90;;;;;;;-5.99;64.70;100602.13;2149611;80;21086;-71
2021/01/17 10:55:58;;;;;;;79.37;31.00;;;;;;;-5.93;64.59;100598.02;2147638;82;21156;-69
2021/01/17 10:59:01;;;;;;;82.13;32.40;;;;;;;-6.10;62.75;100602.93;2146526;80;21117;-71
2021/01/17 11:02:03;;;;;;;61.30;25.63;;;;;;;-6.94;61.79;100599.88;2119908;80;21584;-71
2021/01/17 11:05:06;;;;;;;60.03;25.73;;;;;;;-7.35;63.43;100603.61;2153126;80;21166;-72
2021/01/17 11:08:11;;;;;;;51.07;22.00;;;;;;;-7.44;62.97;100608.58;2144925;80;21161;-69
2021/01/17 11:11:15;;;;;;;45.50;20.73;;;;;;;-7.77;63.64;100611.16;2121035;80;21507;-75
2021/01/17 11:14:25;;;;;;;47.27;19.30;;;;;;;-7.71;63.61;100608.88;2150192;80;21598;-76
2021/01/17 11:17:27;;;;;;;52.05;21.27;;;;;;;-7.74;64.11;100616.66;2147128;80;21189;-78
2021/01/17 11:20:34;;;;;;;50.70;21.20;;;;;;;-7.60;63.59;100620.17;2146879;80;21144;-75
2021/01/17 11:23:36;;;;;;;50.57;22.03;;;;;;;-7.80;63.81;100625.83;2152288;80;21089;-77
2021/01/17 11:26:37;;;;;;;45.47;21.43;;;;;;;-7.77;64.27;100628.33;2147567;80;21200;-76
2021/01/17 11:29:42;;;;;;;53.13;22.67;;;;;;;-7.72;64.19;100632.48;2147688;80;21220;-79
2021/01/17 11:32:43;;;;;;;42.60;17.87;;;;;;;-7.57;64.52;100635.13;2147199;80;21176;-76
2021/01/17 11:35:45;;;;;;;47.83;21.13;;;;;;;-7.45;63.68;100633.97;2148374;80;21161;-77
2021/01/17 11:38:59;;;;;;;43.20;19.13;;;;;;;-7.61;63.45;100622.35;2150746;80;21176;-79
2021/01/17 11:42:01;;;;;;;45.53;18.73;;;;;;;-8.00;63.06;100627.61;2150316;80;21152;-78
2021/01/17 11:45:21;;;;;;;45.43;18.33;;;;;;;-8.34;62.99;100608.64;2153774;80;21226;-79
2021/01/17 11:48:28;;;;;;;33.30;11.55;;;;;;;-8.57;63.71;100618.21;2154777;80;21158;-77
2021/01/17 11:51:31;;;;;;;48.03;20.03;;;;;;;-8.79;64.12;100611.84;2156139;80;21157;-78
2021/01/17 11:54:32;;;;;;;60.73;24.17;;;;;;;-8.79;64.12;100611.84;2160238;80;21208;-77
2021/01/17 11:57:34;;;;;;;45.77;17.43;;;;;;;-8.87;64.04;100613.72;2160550;80;21203;-84
2021/01/17 12:01:00;;;;;;;52.10;21.03;;;;;;;-9.10;64.19;100606.48;2160588;80;21160;-79
2021/01/17 12:04:12;;;;;;;41.33;18.30;;;;;;;-9.10;64.19;100606.48;2161253;80;21131;-74
2021/01/17 12:07:13;;;;;;;60.33;25.17;;;;;;;-9.11;64.17;100605.64;2163940;80;21093;-76
2021/01/17 12:10:14;;;;;;;54.97;22.60;;;;;;;-9.15;64.75;100597.59;2159102;80;21216;-74
2021/01/17 12:13:16;;;;;;;44.07;17.80;;;;;;;-9.08;64.73;100597.02;2156927;80;21577;-78
2021/01/17 12:19:56;;;;;;;61.50;22.60;;;;;;;-9.15;64.42;100585.16;1990996;87;21372;-80
2021/01/17 12:22:57;;;;;;;56.60;22.30;;;;;;;-9.26;64.25;100587.97;1994105;87;21188;-83
2021/01/17 12:25:59;;;;;;;59.93;21.97;;;;;;;-9.61;64.29;100588.18;1989797;87;21573;-82
2021/01/17 12:29:01;;;;;;;63.97;25.23;;;;;;;-9.89;64.34;100583.13;1977093;87;21608;-79
2021/01/17 12:32:03;;;;;;;67.23;27.00;;;;;;;-10.14;64.75;100586.10;1991017;87;21618;-80
2021/01/17 12:35:05;;;;;;;62.53;24.20;;;;;;;-10.20;65.14;100587.49;1982255;87;21127;-80
2021/01/17 12:38:07;;;;;;;70.50;28.00;;;;;;;-10.33;65.08;100590.73;1991474;87;21172;-79
2021/01/17 12:41:18;;;;;;;70.87;25.73;;;;;;;-10.46;65.38;100599.48;1992690;86;21255;-79
2021/01/17 12:44:20;;;;;;;;;;;;;;;-10.59;65.39;100591.10;1987074;87;21243;-80
2021/01/17 12:47:21;;;;;;;66.43;26.00;;;;;;;-10.68;65.55;100595.09;1987718;87;20201;-80
2021/01/17 12:50:23;;;;;;;66.47;27.27;;;;;;;-10.73;65.86;100602.83;1987044;87;22556;-80
2021/01/17 12:53:24;;;;;;;71.53;27.10;;;;;;;-10.76;65.76;100612.30;1991775;87;21677;-79
2021/01/17 12:56:26;;;;;;;69.70;27.00;;;;;;;-10.88;65.88;100607.73;2020721;85;21201;-79
2021/01/17 12:59:27;;;;;;;76.07;29.70;;;;;;;-10.91;66.15;100612.91;2051328;85;21143;-79
2021/01/17 13:02:29;;;;;;;55.20;21.40;;;;;;;-10.91;66.27;100622.32;2062194;85;21142;-79
2021/01/17 13:05:30;;;;;;;61.97;24.73;;;;;;;-10.89;66.24;100619.31;2059374;85;21231;-80
2021/01/17 13:08:37;;;;;;;78.10;31.07;;;;;;;-10.88;66.42;100626.97;2056686;85;21130;-81
2021/01/17 13:11:39;;;;;;;66.97;23.67;;;;;;;-10.84;66.36;100636.74;2058690;85;21177;-80
2021/01/17 13:14:40;;;;;;;74.67;29.70;;;;;;;-10.93;66.21;100636.42;2057503;85;21598;-81
2021/01/17 13:17:42;;;;;;;78.43;28.47;;;;;;;-10.92;66.52;100654.80;2049824;85;21159;-79
2021/01/17 13:20:44;;;;;;;63.23;23.93;;;;;;;-10.87;66.67;100660.73;2032545;85;21162;-79
2021/01/17 13:23:45;;;;;;;90.90;33.17;;;;;;;-10.79;66.52;100660.61;2031791;85;21188;-80
2021/01/17 13:26:53;;;;;;;80.30;30.40;;;;;;;-10.86;66.62;100673.11;2037038;85;21227;-78
2021/01/17 13:29:54;;;;;;;74.77;30.07;;;;;;;-10.66;66.94;100670.30;2033856;85;21220;-80
2021/01/17 13:32:56;;;;;;;85.77;33.67;;;;;;;-10.58;66.60;100660.79;2034935;85;21213;-79
2021/01/17 13:35:57;;;;;;;90.93;31.67;;;;;;;-10.51;66.67;100661.55;2037470;85;21592;-79
2021/01/17 13:38:58;;;;;;;83.03;30.80;;;;;;;-10.54;66.42;100657.73;2033045;85;21153;-79
2021/01/17 13:42:00;;;;;;;83.03;32.27;;;;;;;-10.53;66.51;100659.02;2032036;85;21182;-80
2021/01/17 13:45:03;;;;;;;86.63;34.50;;;;;;;-10.49;66.69;100658.53;2035915;85;21130;-79
2021/01/17 13:48:06;;;;;;;81.63;29.63;;;;;;;-10.39;66.69;100665.20;2032272;85;21177;-80
2021/01/17 13:51:08;;;;;;;81.67;31.73;;;;;;;-10.28;66.78;100671.04;2020722;85;21176;-79
2021/01/17 13:54:10;;;;;;;73.77;29.80;;;;;;;-10.27;66.54;100683.02;2037503;85;21121;-80
2021/01/17 13:57:11;;;;;;;78.47;30.17;;;;;;;-10.21;66.66;100683.33;2034533;85;21617;-81
2021/01/17 14:00:20;;;;;;;89.60;31.87;;;;;;;-10.31;66.23;100681.34;2036210;85;21192;-81